sensor_id;sensor_type;location;lat;lon;timestamp;P1;durP1;ratioP1;P2;durP2;ratioP2
35496;SDS011;21609;49.298;6.844;2023-05-20T00:00:57;0.80;;;0.80;;
35496;SDS011;21609;49.298;6.844;2023-05-20T00:03:23;0.75;;;0.75;;
35496;SDS011;21609;49.298;6.844;2023-05-20T00:05:48;1.45;;;0.80;;
35496;SDS011;21609;49.298;6.844;2023-05-20T00:08:14;0.80;;;0.80;;
35496;SDS011;21609;49.298;6.844;2023-05-20T00:10:40;1.13;;;1.02;;
35496;SDS011;21609;49.298;6.844;2023-05-20T00:13:05;0.82;;;0.80;;
35496;SDS011;21609;49.298;6.844;2023-05-20T00:15:32;1.65;;;1.05;;
35496;SDS011;21609;49.298;6.844;2023-05-20T00:17:59;1.08;;;0.90;;
35496;SDS011;21609;49.298;6.844;2023-05-20T00:20:25;1.25;;;0.85;;
35496;SDS011;21609;49.298;6.844;2023-05-20T00:22:51;0.82;;;0.82;;
35496;SDS011;21609;49.298;6.844;2023-05-20T00:25:17;0.88;;;0.70;;
35496;SDS011;21609;49.298;6.844;2023-05-20T00:27:42;1.00;;;0.90;;
35496;SDS011;21609;49.298;6.844;2023-05-20T00:30:08;2.30;;;0.90;;
35496;SDS011;21609;49.298;6.844;2023-05-20T00:32:34;0.60;;;0.60;;
35496;SDS011;21609;49.298;6.844;2023-05-20T00:35:01;1.15;;;1.02;;
35496;SDS011;21609;49.298;6.844;2023-05-20T00:37:27;0.70;;;0.70;;
35496;SDS011;21609;49.298;6.844;2023-05-20T00:39:53;1.10;;;0.93;;
35496;SDS011;21609;49.298;6.844;2023-05-20T00:42:19;0.93;;;0.93;;
35496;SDS011;21609;49.298;6.844;2023-05-20T00:44:45;1.90;;;1.05;;
35496;SDS011;21609;49.298;6.844;2023-05-20T00:47:11;1.00;;;1.00;;
35496;SDS011;21609;49.298;6.844;2023-05-20T00:49:37;0.85;;;0.82;;
35496;SDS011;21609;49.298;6.844;2023-05-20T00:52:03;0.73;;;0.73;;
35496;SDS011;21609;49.298;6.844;2023-05-20T00:54:29;0.70;;;0.60;;
35496;SDS011;21609;49.298;6.844;2023-05-20T00:56:55;0.88;;;0.88;;
35496;SDS011;21609;49.298;6.844;2023-05-20T00:59:22;1.33;;;0.82;;
35496;SDS011;21609;49.298;6.844;2023-05-20T01:01:48;0.68;;;0.68;;
35496;SDS011;21609;49.298;6.844;2023-05-20T01:04:13;0.77;;;0.77;;
35496;SDS011;21609;49.298;6.844;2023-05-20T01:06:39;0.85;;;0.85;;
35496;SDS011;21609;49.298;6.844;2023-05-20T01:09:05;0.75;;;0.70;;
35496;SDS011;21609;49.298;6.844;2023-05-20T01:11:36;1.42;;;0.90;;
35496;SDS011;21609;49.298;6.844;2023-05-20T01:14:07;0.80;;;0.80;;
35496;SDS011;21609;49.298;6.844;2023-05-20T01:16:34;2.05;;;1.10;;
35496;SDS011;21609;49.298;6.844;2023-05-20T01:19:01;1.05;;;0.90;;
35496;SDS011;21609;49.298;6.844;2023-05-20T01:21:29;0.77;;;0.77;;
35496;SDS011;21609;49.298;6.844;2023-05-20T01:23:57;1.67;;;0.95;;
35496;SDS011;21609;49.298;6.844;2023-05-20T01:26:25;0.80;;;0.80;;
35496;SDS011;21609;49.298;6.844;2023-05-20T01:28:51;0.63;;;0.63;;
35496;SDS011;21609;49.298;6.844;2023-05-20T01:31:17;1.95;;;0.90;;
35496;SDS011;21609;49.298;6.844;2023-05-20T01:33:50;0.80;;;0.80;;
35496;SDS011;21609;49.298;6.844;2023-05-20T01:36:20;1.02;;;0.73;;
35496;SDS011;21609;49.298;6.844;2023-05-20T01:38:46;1.10;;;1.00;;
35496;SDS011;21609;49.298;6.844;2023-05-20T01:41:12;0.80;;;0.80;;
35496;SDS011;21609;49.298;6.844;2023-05-20T01:43:39;0.52;;;0.52;;
35496;SDS011;21609;49.298;6.844;2023-05-20T01:46:05;0.75;;;0.75;;
35496;SDS011;21609;49.298;6.844;2023-05-20T01:48:31;0.70;;;0.70;;
35496;SDS011;21609;49.298;6.844;2023-05-20T01:50:56;1.00;;;0.90;;
35496;SDS011;21609;49.298;6.844;2023-05-20T01:53:22;1.27;;;0.73;;
35496;SDS011;21609;49.298;6.844;2023-05-20T01:55:47;0.82;;;0.82;;
35496;SDS011;21609;49.298;6.844;2023-05-20T01:58:13;0.85;;;0.80;;
35496;SDS011;21609;49.298;6.844;2023-05-20T02:00:39;0.70;;;0.70;;
35496;SDS011;21609;49.298;6.844;2023-05-20T02:03:04;2.80;;;0.82;;
35496;SDS011;21609;49.298;6.844;2023-05-20T02:05:30;1.20;;;0.80;;
35496;SDS011;21609;49.298;6.844;2023-05-20T02:07:55;0.70;;;0.70;;
35496;SDS011;21609;49.298;6.844;2023-05-20T02:10:21;0.80;;;0.80;;
35496;SDS011;21609;49.298;6.844;2023-05-20T02:12:47;1.20;;;0.90;;
35496;SDS011;21609;49.298;6.844;2023-05-20T02:15:13;0.85;;;0.85;;
35496;SDS011;21609;49.298;6.844;2023-05-20T02:17:38;0.80;;;0.80;;
35496;SDS011;21609;49.298;6.844;2023-05-20T02:20:05;1.23;;;0.90;;
35496;SDS011;21609;49.298;6.844;2023-05-20T02:22:31;0.75;;;0.75;;
35496;SDS011;21609;49.298;6.844;2023-05-20T02:24:57;0.77;;;0.77;;
35496;SDS011;21609;49.298;6.844;2023-05-20T02:27:23;0.90;;;0.90;;
35496;SDS011;21609;49.298;6.844;2023-05-20T02:29:48;0.77;;;0.70;;
35496;SDS011;21609;49.298;6.844;2023-05-20T02:32:14;0.60;;;0.60;;
35496;SDS011;21609;49.298;6.844;2023-05-20T02:34:39;1.00;;;0.90;;
35496;SDS011;21609;49.298;6.844;2023-05-20T02:37:05;0.70;;;0.65;;
35496;SDS011;21609;49.298;6.844;2023-05-20T02:39:30;0.95;;;0.60;;
35496;SDS011;21609;49.298;6.844;2023-05-20T02:41:56;1.00;;;0.90;;
35496;SDS011;21609;49.298;6.844;2023-05-20T02:44:22;1.15;;;0.90;;
35496;SDS011;21609;49.298;6.844;2023-05-20T02:46:47;0.73;;;0.70;;
35496;SDS011;21609;49.298;6.844;2023-05-20T02:49:13;0.75;;;0.73;;
35496;SDS011;21609;49.298;6.844;2023-05-20T02:51:39;1.10;;;1.00;;
35496;SDS011;21609;49.298;6.844;2023-05-20T02:54:04;0.90;;;0.90;;
35496;SDS011;21609;49.298;6.844;2023-05-20T02:56:30;0.80;;;0.80;;
35496;SDS011;21609;49.298;6.844;2023-05-20T02:58:56;2.03;;;0.73;;
35496;SDS011;21609;49.298;6.844;2023-05-20T03:01:21;0.75;;;0.75;;
35496;SDS011;21609;49.298;6.844;2023-05-20T03:03:47;0.93;;;0.70;;
35496;SDS011;21609;49.298;6.844;2023-05-20T03:06:13;0.98;;;0.90;;
35496;SDS011;21609;49.298;6.844;2023-05-20T03:08:38;0.80;;;0.80;;
35496;SDS011;21609;49.298;6.844;2023-05-20T03:11:06;1.08;;;0.98;;
35496;SDS011;21609;49.298;6.844;2023-05-20T03:13:32;1.10;;;1.00;;
35496;SDS011;21609;49.298;6.844;2023-05-20T03:15:58;0.77;;;0.77;;
35496;SDS011;21609;49.298;6.844;2023-05-20T03:18:25;1.00;;;1.00;;
35496;SDS011;21609;49.298;6.844;2023-05-20T03:20:51;0.80;;;0.80;;
35496;SDS011;21609;49.298;6.844;2023-05-20T03:23:16;1.42;;;0.70;;
35496;SDS011;21609;49.298;6.844;2023-05-20T03:25:42;0.80;;;0.80;;
35496;SDS011;21609;49.298;6.844;2023-05-20T03:28:07;0.77;;;0.77;;
35496;SDS011;21609;49.298;6.844;2023-05-20T03:30:33;0.80;;;0.80;;
35496;SDS011;21609;49.298;6.844;2023-05-20T03:32:59;1.20;;;1.00;;
35496;SDS011;21609;49.298;6.844;2023-05-20T03:35:26;0.70;;;0.70;;
35496;SDS011;21609;49.298;6.844;2023-05-20T03:37:52;0.68;;;0.68;;
35496;SDS011;21609;49.298;6.844;2023-05-20T03:40:17;1.77;;;0.68;;
35496;SDS011;21609;49.298;6.844;2023-05-20T03:42:45;1.75;;;0.70;;
35496;SDS011;21609;49.298;6.844;2023-05-20T03:45:10;0.85;;;0.85;;
35496;SDS011;21609;49.298;6.844;2023-05-20T03:47:36;0.80;;;0.80;;
35496;SDS011;21609;49.298;6.844;2023-05-20T03:50:01;0.82;;;0.70;;
35496;SDS011;21609;49.298;6.844;2023-05-20T03:52:27;1.00;;;0.90;;
35496;SDS011;21609;49.298;6.844;2023-05-20T03:54:53;1.05;;;0.95;;
35496;SDS011;21609;49.298;6.844;2023-05-20T03:57:18;0.80;;;0.80;;
35496;SDS011;21609;49.298;6.844;2023-05-20T03:59:44;0.70;;;0.70;;
35496;SDS011;21609;49.298;6.844;2023-05-20T04:02:10;0.90;;;0.82;;
35496;SDS011;21609;49.298;6.844;2023-05-20T04:04:36;0.90;;;0.70;;
35496;SDS011;21609;49.298;6.844;2023-05-20T04:07:02;0.70;;;0.60;;
35496;SDS011;21609;49.298;6.844;2023-05-20T04:09:28;0.75;;;0.63;;
35496;SDS011;21609;49.298;6.844;2023-05-20T04:11:54;0.98;;;0.90;;
35496;SDS011;21609;49.298;6.844;2023-05-20T04:14:20;0.77;;;0.77;;
35496;SDS011;21609;49.298;6.844;2023-05-20T04:16:45;0.73;;;0.73;;
35496;SDS011;21609;49.298;6.844;2023-05-20T04:19:11;2.05;;;0.70;;
35496;SDS011;21609;49.298;6.844;2023-05-20T04:21:37;0.80;;;0.80;;
35496;SDS011;21609;49.298;6.844;2023-05-20T04:24:03;0.93;;;0.93;;
35496;SDS011;21609;49.298;6.844;2023-05-20T04:26:28;1.67;;;0.80;;
35496;SDS011;21609;49.298;6.844;2023-05-20T04:28:54;0.95;;;0.75;;
35496;SDS011;21609;49.298;6.844;2023-05-20T04:31:23;0.70;;;0.70;;
35496;SDS011;21609;49.298;6.844;2023-05-20T04:33:50;1.13;;;0.90;;
35496;SDS011;21609;49.298;6.844;2023-05-20T04:36:19;0.95;;;0.80;;
35496;SDS011;21609;49.298;6.844;2023-05-20T04:38:46;1.30;;;0.90;;
35496;SDS011;21609;49.298;6.844;2023-05-20T04:41:12;0.82;;;0.82;;
35496;SDS011;21609;49.298;6.844;2023-05-20T04:43:37;1.10;;;0.98;;
35496;SDS011;21609;49.298;6.844;2023-05-20T04:46:04;1.00;;;0.90;;
35496;SDS011;21609;49.298;6.844;2023-05-20T04:48:30;0.80;;;0.80;;
35496;SDS011;21609;49.298;6.844;2023-05-20T04:50:56;0.80;;;0.80;;
35496;SDS011;21609;49.298;6.844;2023-05-20T04:53:22;0.70;;;0.70;;
35496;SDS011;21609;49.298;6.844;2023-05-20T04:55:47;0.88;;;0.88;;
35496;SDS011;21609;49.298;6.844;2023-05-20T04:58:17;0.63;;;0.63;;
35496;SDS011;21609;49.298;6.844;2023-05-20T05:00:43;0.80;;;0.80;;
35496;SDS011;21609;49.298;6.844;2023-05-20T05:03:10;0.95;;;0.95;;
35496;SDS011;21609;49.298;6.844;2023-05-20T05:05:38;1.02;;;0.70;;
35496;SDS011;21609;49.298;6.844;2023-05-20T05:08:04;1.02;;;0.80;;
35496;SDS011;21609;49.298;6.844;2023-05-20T05:10:31;1.08;;;0.98;;
35496;SDS011;21609;49.298;6.844;2023-05-20T05:12:57;1.08;;;0.98;;
35496;SDS011;21609;49.298;6.844;2023-05-20T05:15:23;0.88;;;0.80;;
35496;SDS011;21609;49.298;6.844;2023-05-20T05:17:49;0.88;;;0.88;;
35496;SDS011;21609;49.298;6.844;2023-05-20T05:20:15;1.55;;;0.70;;
35496;SDS011;21609;49.298;6.844;2023-05-20T05:22:41;1.63;;;0.98;;
35496;SDS011;21609;49.298;6.844;2023-05-20T05:25:07;1.60;;;0.90;;
35496;SDS011;21609;49.298;6.844;2023-05-20T05:27:34;1.08;;;0.98;;
35496;SDS011;21609;49.298;6.844;2023-05-20T05:30:00;0.70;;;0.60;;
35496;SDS011;21609;49.298;6.844;2023-05-20T05:32:26;0.90;;;0.90;;
35496;SDS011;21609;49.298;6.844;2023-05-20T05:34:52;0.73;;;0.70;;
35496;SDS011;21609;49.298;6.844;2023-05-20T05:37:17;0.50;;;0.50;;
35496;SDS011;21609;49.298;6.844;2023-05-20T05:39:43;0.70;;;0.70;;
35496;SDS011;21609;49.298;6.844;2023-05-20T05:42:08;2.17;;;0.82;;
35496;SDS011;21609;49.298;6.844;2023-05-20T05:44:34;0.95;;;0.85;;
35496;SDS011;21609;49.298;6.844;2023-05-20T05:47:00;0.73;;;0.73;;
35496;SDS011;21609;49.298;6.844;2023-05-20T05:49:25;0.90;;;0.90;;
35496;SDS011;21609;49.298;6.844;2023-05-20T05:51:51;5.32;;;1.23;;
35496;SDS011;21609;49.298;6.844;2023-05-20T05:54:16;0.75;;;0.75;;
35496;SDS011;21609;49.298;6.844;2023-05-20T05:56:44;0.70;;;0.70;;
35496;SDS011;21609;49.298;6.844;2023-05-20T05:59:09;1.30;;;1.08;;
35496;SDS011;21609;49.298;6.844;2023-05-20T06:01:35;1.05;;;0.75;;
35496;SDS011;21609;49.298;6.844;2023-05-20T06:04:01;1.02;;;0.98;;
35496;SDS011;21609;49.298;6.844;2023-05-20T06:06:26;1.52;;;0.80;;
35496;SDS011;21609;49.298;6.844;2023-05-20T06:08:52;0.80;;;0.80;;
35496;SDS011;21609;49.298;6.844;2023-05-20T06:11:17;1.17;;;1.08;;
35496;SDS011;21609;49.298;6.844;2023-05-20T06:13:43;0.95;;;0.80;;
35496;SDS011;21609;49.298;6.844;2023-05-20T06:16:09;1.33;;;0.88;;
35496;SDS011;21609;49.298;6.844;2023-05-20T06:18:34;0.90;;;0.90;;
35496;SDS011;21609;49.298;6.844;2023-05-20T06:21:00;1.00;;;0.68;;
35496;SDS011;21609;49.298;6.844;2023-05-20T06:23:25;0.98;;;0.85;;
35496;SDS011;21609;49.298;6.844;2023-05-20T06:25:51;1.77;;;0.88;;
35496;SDS011;21609;49.298;6.844;2023-05-20T06:28:16;1.73;;;1.20;;
35496;SDS011;21609;49.298;6.844;2023-05-20T06:30:42;2.05;;;0.98;;
35496;SDS011;21609;49.298;6.844;2023-05-20T06:33:08;1.70;;;0.68;;
35496;SDS011;21609;49.298;6.844;2023-05-20T06:35:33;1.02;;;0.93;;
35496;SDS011;21609;49.298;6.844;2023-05-20T06:37:59;1.70;;;0.82;;
35496;SDS011;21609;49.298;6.844;2023-05-20T06:40:25;1.77;;;0.70;;
35496;SDS011;21609;49.298;6.844;2023-05-20T06:42:52;1.00;;;1.00;;
35496;SDS011;21609;49.298;6.844;2023-05-20T06:45:17;2.05;;;0.90;;
35496;SDS011;21609;49.298;6.844;2023-05-20T06:47:43;3.00;;;0.98;;
35496;SDS011;21609;49.298;6.844;2023-05-20T06:50:09;1.00;;;1.00;;
35496;SDS011;21609;49.298;6.844;2023-05-20T06:52:35;0.95;;;0.88;;
35496;SDS011;21609;49.298;6.844;2023-05-20T06:55:01;0.90;;;0.90;;
35496;SDS011;21609;49.298;6.844;2023-05-20T06:57:29;1.20;;;1.15;;
35496;SDS011;21609;49.298;6.844;2023-05-20T06:59:54;1.27;;;0.70;;
35496;SDS011;21609;49.298;6.844;2023-05-20T07:02:20;0.80;;;0.80;;
35496;SDS011;21609;49.298;6.844;2023-05-20T07:04:46;0.77;;;0.77;;
35496;SDS011;21609;49.298;6.844;2023-05-20T07:07:12;0.80;;;0.80;;
35496;SDS011;21609;49.298;6.844;2023-05-20T07:09:38;0.95;;;0.80;;
35496;SDS011;21609;49.298;6.844;2023-05-20T07:12:03;1.20;;;1.10;;
35496;SDS011;21609;49.298;6.844;2023-05-20T07:14:29;0.80;;;0.80;;
35496;SDS011;21609;49.298;6.844;2023-05-20T07:16:55;0.85;;;0.80;;
35496;SDS011;21609;49.298;6.844;2023-05-20T07:19:20;0.60;;;0.60;;
35496;SDS011;21609;49.298;6.844;2023-05-20T07:21:46;1.02;;;0.80;;
35496;SDS011;21609;49.298;6.844;2023-05-20T07:24:13;0.70;;;0.70;;
35496;SDS011;21609;49.298;6.844;2023-05-20T07:26:39;0.90;;;0.90;;
35496;SDS011;21609;49.298;6.844;2023-05-20T07:29:05;0.90;;;0.90;;
35496;SDS011;21609;49.298;6.844;2023-05-20T07:31:31;0.80;;;0.80;;
35496;SDS011;21609;49.298;6.844;2023-05-20T07:33:56;0.80;;;0.80;;
35496;SDS011;21609;49.298;6.844;2023-05-20T07:36:22;0.82;;;0.82;;
35496;SDS011;21609;49.298;6.844;2023-05-20T07:38:48;0.90;;;0.90;;
35496;SDS011;21609;49.298;6.844;2023-05-20T07:41:13;1.08;;;0.98;;
35496;SDS011;21609;49.298;6.844;2023-05-20T07:43:39;0.85;;;0.85;;
35496;SDS011;21609;49.298;6.844;2023-05-20T07:46:04;0.98;;;0.75;;
35496;SDS011;21609;49.298;6.844;2023-05-20T07:48:30;0.82;;;0.75;;
35496;SDS011;21609;49.298;6.844;2023-05-20T07:50:55;1.25;;;1.02;;
35496;SDS011;21609;49.298;6.844;2023-05-20T07:53:23;0.90;;;0.90;;
35496;SDS011;21609;49.298;6.844;2023-05-20T07:55:49;1.08;;;1.00;;
35496;SDS011;21609;49.298;6.844;2023-05-20T07:58:15;0.85;;;0.85;;
35496;SDS011;21609;49.298;6.844;2023-05-20T08:00:40;0.98;;;0.82;;
35496;SDS011;21609;49.298;6.844;2023-05-20T08:03:06;0.90;;;0.90;;
35496;SDS011;21609;49.298;6.844;2023-05-20T08:05:32;1.95;;;1.02;;
35496;SDS011;21609;49.298;6.844;2023-05-20T08:08:00;1.35;;;1.08;;
35496;SDS011;21609;49.298;6.844;2023-05-20T08:10:25;1.83;;;1.35;;
35496;SDS011;21609;49.298;6.844;2023-05-20T08:12:51;0.93;;;0.93;;
35496;SDS011;21609;49.298;6.844;2023-05-20T08:15:17;1.27;;;1.17;;
35496;SDS011;21609;49.298;6.844;2023-05-20T08:17:43;1.10;;;1.00;;
35496;SDS011;21609;49.298;6.844;2023-05-20T08:20:08;1.25;;;1.15;;
35496;SDS011;21609;49.298;6.844;2023-05-20T08:22:36;1.02;;;0.98;;
35496;SDS011;21609;49.298;6.844;2023-05-20T08:25:02;2.05;;;1.20;;
35496;SDS011;21609;49.298;6.844;2023-05-20T08:27:28;1.08;;;1.00;;
35496;SDS011;21609;49.298;6.844;2023-05-20T08:29:54;1.20;;;1.05;;
35496;SDS011;21609;49.298;6.844;2023-05-20T08:32:20;1.30;;;1.20;;
35496;SDS011;21609;49.298;6.844;2023-05-20T08:34:46;0.88;;;0.88;;
35496;SDS011;21609;49.298;6.844;2023-05-20T08:37:13;1.20;;;1.10;;
35496;SDS011;21609;49.298;6.844;2023-05-20T08:39:38;1.38;;;1.27;;
35496;SDS011;21609;49.298;6.844;2023-05-20T08:42:04;1.20;;;1.10;;
35496;SDS011;21609;49.298;6.844;2023-05-20T08:44:32;1.60;;;1.33;;
35496;SDS011;21609;49.298;6.844;2023-05-20T08:46:59;1.17;;;1.10;;
35496;SDS011;21609;49.298;6.844;2023-05-20T08:49:27;1.33;;;1.15;;
35496;SDS011;21609;49.298;6.844;2023-05-20T08:51:53;1.27;;;1.17;;
35496;SDS011;21609;49.298;6.844;2023-05-20T08:54:18;1.58;;;1.40;;
35496;SDS011;21609;49.298;6.844;2023-05-20T08:56:47;1.38;;;1.27;;
35496;SDS011;21609;49.298;6.844;2023-05-20T08:59:13;1.20;;;1.10;;
35496;SDS011;21609;49.298;6.844;2023-05-20T09:01:41;1.40;;;1.30;;
35496;SDS011;21609;49.298;6.844;2023-05-20T09:04:07;1.10;;;1.00;;
35496;SDS011;21609;49.298;6.844;2023-05-20T09:06:43;1.20;;;1.10;;
35496;SDS011;21609;49.298;6.844;2023-05-20T09:09:11;1.17;;;1.08;;
35496;SDS011;21609;49.298;6.844;2023-05-20T09:11:37;1.05;;;1.02;;
35496;SDS011;21609;49.298;6.844;2023-05-20T09:14:04;1.33;;;1.23;;
35496;SDS011;21609;49.298;6.844;2023-05-20T09:16:30;1.52;;;1.42;;
35496;SDS011;21609;49.298;6.844;2023-05-20T09:18:55;1.63;;;1.30;;
35496;SDS011;21609;49.298;6.844;2023-05-20T09:21:25;1.20;;;1.10;;
35496;SDS011;21609;49.298;6.844;2023-05-20T09:23:51;1.42;;;1.33;;
35496;SDS011;21609;49.298;6.844;2023-05-20T09:26:18;1.25;;;1.15;;
35496;SDS011;21609;49.298;6.844;2023-05-20T09:28:43;1.20;;;1.10;;
35496;SDS011;21609;49.298;6.844;2023-05-20T09:31:10;1.42;;;1.27;;
35496;SDS011;21609;49.298;6.844;2023-05-20T09:33:38;1.60;;;1.50;;
35496;SDS011;21609;49.298;6.844;2023-05-20T09:36:08;1.13;;;1.10;;
35496;SDS011;21609;49.298;6.844;2023-05-20T09:38:37;1.65;;;1.52;;
35496;SDS011;21609;49.298;6.844;2023-05-20T09:41:08;1.38;;;1.27;;
35496;SDS011;21609;49.298;6.844;2023-05-20T09:43:36;1.50;;;1.40;;
35496;SDS011;21609;49.298;6.844;2023-05-20T09:46:06;1.70;;;1.60;;
35496;SDS011;21609;49.298;6.844;2023-05-20T09:48:32;1.25;;;1.23;;
35496;SDS011;21609;49.298;6.844;2023-05-20T09:51:01;1.10;;;1.10;;
35496;SDS011;21609;49.298;6.844;2023-05-20T09:53:28;1.60;;;1.50;;
35496;SDS011;21609;49.298;6.844;2023-05-20T09:55:54;1.45;;;1.35;;
35496;SDS011;21609;49.298;6.844;2023-05-20T09:58:20;1.52;;;1.42;;
35496;SDS011;21609;49.298;6.844;2023-05-20T10:00:47;1.10;;;1.00;;
35496;SDS011;21609;49.298;6.844;2023-05-20T10:03:13;1.58;;;1.35;;
35496;SDS011;21609;49.298;6.844;2023-05-20T10:05:47;1.20;;;1.17;;
35496;SDS011;21609;49.298;6.844;2023-05-20T10:08:40;1.38;;;1.27;;
35496;SDS011;21609;49.298;6.844;2023-05-20T10:12:23;1.60;;;1.20;;
35496;SDS011;21609;49.298;6.844;2023-05-20T10:19:41;1.33;;;1.25;;
35496;SDS011;21609;49.298;6.844;2023-05-20T10:22:07;2.22;;;2.03;;
35496;SDS011;21609;49.298;6.844;2023-05-20T10:27:02;2.13;;;1.70;;
35496;SDS011;21609;49.298;6.844;2023-05-20T10:29:29;1.98;;;1.55;;
35496;SDS011;21609;49.298;6.844;2023-05-20T10:32:07;1.58;;;1.48;;
35496;SDS011;21609;49.298;6.844;2023-05-20T10:34:43;1.60;;;1.50;;
35496;SDS011;21609;49.298;6.844;2023-05-20T10:37:19;1.45;;;1.35;;
35496;SDS011;21609;49.298;6.844;2023-05-20T10:39:49;1.77;;;1.63;;
35496;SDS011;21609;49.298;6.844;2023-05-20T10:42:15;1.70;;;1.48;;
35496;SDS011;21609;49.298;6.844;2023-05-20T10:44:44;2.22;;;2.00;;
35496;SDS011;21609;49.298;6.844;2023-05-20T10:47:11;1.60;;;1.50;;
35496;SDS011;21609;49.298;6.844;2023-05-20T10:49:44;1.48;;;1.38;;
35496;SDS011;21609;49.298;6.844;2023-05-20T10:52:10;1.67;;;1.58;;
35496;SDS011;21609;49.298;6.844;2023-05-20T10:54:45;1.90;;;1.70;;
35496;SDS011;21609;49.298;6.844;2023-05-20T10:57:11;1.60;;;1.50;;
35496;SDS011;21609;49.298;6.844;2023-05-20T10:59:37;1.60;;;1.50;;
35496;SDS011;21609;49.298;6.844;2023-05-20T11:02:02;2.00;;;1.90;;
35496;SDS011;21609;49.298;6.844;2023-05-20T11:04:28;1.63;;;1.52;;
35496;SDS011;21609;49.298;6.844;2023-05-20T11:06:54;3.22;;;1.80;;
35496;SDS011;21609;49.298;6.844;2023-05-20T11:09:21;1.63;;;1.52;;
35496;SDS011;21609;49.298;6.844;2023-05-20T11:11:47;1.90;;;1.80;;
35496;SDS011;21609;49.298;6.844;2023-05-20T11:14:13;1.80;;;1.70;;
35496;SDS011;21609;49.298;6.844;2023-05-20T11:16:40;3.05;;;1.67;;
35496;SDS011;21609;49.298;6.844;2023-05-20T11:19:07;1.85;;;1.75;;
35496;SDS011;21609;49.298;6.844;2023-05-20T11:21:33;1.90;;;1.70;;
35496;SDS011;21609;49.298;6.844;2023-05-20T11:23:59;1.58;;;1.48;;
35496;SDS011;21609;49.298;6.844;2023-05-20T11:26:25;1.83;;;1.55;;
35496;SDS011;21609;49.298;6.844;2023-05-20T11:28:50;1.27;;;1.20;;
35496;SDS011;21609;49.298;6.844;2023-05-20T11:31:17;1.70;;;1.60;;
35496;SDS011;21609;49.298;6.844;2023-05-20T11:33:42;1.60;;;1.50;;
35496;SDS011;21609;49.298;6.844;2023-05-20T11:36:08;2.15;;;1.42;;
35496;SDS011;21609;49.298;6.844;2023-05-20T11:38:35;1.70;;;1.60;;
35496;SDS011;21609;49.298;6.844;2023-05-20T11:41:00;2.13;;;2.03;;
35496;SDS011;21609;49.298;6.844;2023-05-20T11:43:26;1.60;;;1.50;;
35496;SDS011;21609;49.298;6.844;2023-05-20T11:45:52;1.77;;;1.67;;
35496;SDS011;21609;49.298;6.844;2023-05-20T11:48:19;3.63;;;1.45;;
35496;SDS011;21609;49.298;6.844;2023-05-20T11:50:45;1.67;;;1.58;;
35496;SDS011;21609;49.298;6.844;2023-05-20T11:53:15;2.03;;;1.92;;
35496;SDS011;21609;49.298;6.844;2023-05-20T11:58:10;1.42;;;1.33;;
35496;SDS011;21609;49.298;6.844;2023-05-20T12:00:39;1.98;;;1.63;;
35496;SDS011;21609;49.298;6.844;2023-05-20T12:03:04;1.77;;;1.67;;
35496;SDS011;21609;49.298;6.844;2023-05-20T12:05:30;4.32;;;2.20;;
35496;SDS011;21609;49.298;6.844;2023-05-20T12:07:55;2.75;;;2.13;;
35496;SDS011;21609;49.298;6.844;2023-05-20T12:10:21;2.47;;;2.28;;
35496;SDS011;21609;49.298;6.844;2023-05-20T12:12:46;7.93;;;2.25;;
35496;SDS011;21609;49.298;6.844;2023-05-20T12:15:12;1.83;;;1.73;;
35496;SDS011;21609;49.298;6.844;2023-05-20T12:17:45;1.90;;;1.80;;
35496;SDS011;21609;49.298;6.844;2023-05-20T12:20:12;2.05;;;1.95;;
35496;SDS011;21609;49.298;6.844;2023-05-20T12:22:39;2.67;;;2.47;;
35496;SDS011;21609;49.298;6.844;2023-05-20T12:25:05;3.58;;;2.03;;
35496;SDS011;21609;49.298;6.844;2023-05-20T12:27:31;1.83;;;1.73;;
35496;SDS011;21609;49.298;6.844;2023-05-20T12:29:57;3.28;;;1.80;;
35496;SDS011;21609;49.298;6.844;2023-05-20T12:32:23;1.70;;;1.60;;
35496;SDS011;21609;49.298;6.844;2023-05-20T12:34:49;2.25;;;2.08;;
35496;SDS011;21609;49.298;6.844;2023-05-20T12:37:14;3.75;;;1.92;;
35496;SDS011;21609;49.298;6.844;2023-05-20T12:39:40;2.00;;;1.90;;
35496;SDS011;21609;49.298;6.844;2023-05-20T12:42:05;1.80;;;1.70;;
35496;SDS011;21609;49.298;6.844;2023-05-20T12:44:31;1.90;;;1.80;;
35496;SDS011;21609;49.298;6.844;2023-05-20T12:46:56;2.03;;;1.77;;
35496;SDS011;21609;49.298;6.844;2023-05-20T12:49:22;2.63;;;2.08;;
35496;SDS011;21609;49.298;6.844;2023-05-20T12:51:48;2.45;;;2.30;;
35496;SDS011;21609;49.298;6.844;2023-05-20T12:54:13;2.13;;;1.92;;
35496;SDS011;21609;49.298;6.844;2023-05-20T12:56:39;2.10;;;2.00;;
35496;SDS011;21609;49.298;6.844;2023-05-20T12:59:05;4.70;;;2.38;;
35496;SDS011;21609;49.298;6.844;2023-05-20T13:01:31;2.80;;;1.98;;
35496;SDS011;21609;49.298;6.844;2023-05-20T13:03:56;2.72;;;2.15;;
35496;SDS011;21609;49.298;6.844;2023-05-20T13:06:22;2.40;;;2.17;;
35496;SDS011;21609;49.298;6.844;2023-05-20T13:08:48;2.20;;;2.10;;
35496;SDS011;21609;49.298;6.844;2023-05-20T13:11:14;2.97;;;2.28;;
35496;SDS011;21609;49.298;6.844;2023-05-20T13:13:39;2.30;;;2.17;;
35496;SDS011;21609;49.298;6.844;2023-05-20T13:16:05;4.88;;;2.40;;
35496;SDS011;21609;49.298;6.844;2023-05-20T13:18:31;2.30;;;2.20;;
35496;SDS011;21609;49.298;6.844;2023-05-20T13:20:56;3.40;;;2.13;;
35496;SDS011;21609;49.298;6.844;2023-05-20T13:23:22;2.58;;;2.20;;
35496;SDS011;21609;49.298;6.844;2023-05-20T13:25:47;2.53;;;2.25;;
35496;SDS011;21609;49.298;6.844;2023-05-20T13:28:13;2.70;;;2.10;;
35496;SDS011;21609;49.298;6.844;2023-05-20T13:30:42;2.33;;;2.13;;
35496;SDS011;21609;49.298;6.844;2023-05-20T13:33:07;2.65;;;2.45;;
35496;SDS011;21609;49.298;6.844;2023-05-20T13:35:33;2.65;;;2.35;;
35496;SDS011;21609;49.298;6.844;2023-05-20T13:37:58;2.40;;;2.20;;
35496;SDS011;21609;49.298;6.844;2023-05-20T13:40:24;4.28;;;3.20;;
35496;SDS011;21609;49.298;6.844;2023-05-20T13:42:50;3.08;;;2.10;;
35496;SDS011;21609;49.298;6.844;2023-05-20T13:45:15;3.33;;;2.10;;
35496;SDS011;21609;49.298;6.844;2023-05-20T13:47:42;4.90;;;2.45;;
35496;SDS011;21609;49.298;6.844;2023-05-20T13:50:08;6.38;;;2.22;;
35496;SDS011;21609;49.298;6.844;2023-05-20T13:52:34;2.72;;;2.53;;
35496;SDS011;21609;49.298;6.844;2023-05-20T13:55:00;2.00;;;1.90;;
35496;SDS011;21609;49.298;6.844;2023-05-20T13:57:26;2.28;;;2.08;;
35496;SDS011;21609;49.298;6.844;2023-05-20T13:59:51;3.15;;;2.28;;
35496;SDS011;21609;49.298;6.844;2023-05-20T14:02:17;2.67;;;2.47;;
35496;SDS011;21609;49.298;6.844;2023-05-20T14:04:43;2.50;;;2.30;;
35496;SDS011;21609;49.298;6.844;2023-05-20T14:07:10;3.95;;;2.28;;
35496;SDS011;21609;49.298;6.844;2023-05-20T14:09:36;2.92;;;2.17;;
35496;SDS011;21609;49.298;6.844;2023-05-20T14:12:02;2.45;;;2.25;;
35496;SDS011;21609;49.298;6.844;2023-05-20T14:14:29;2.53;;;2.33;;
35496;SDS011;21609;49.298;6.844;2023-05-20T14:16:55;2.33;;;2.13;;
35496;SDS011;21609;49.298;6.844;2023-05-20T14:19:20;2.47;;;2.30;;
35496;SDS011;21609;49.298;6.844;2023-05-20T14:21:46;2.47;;;2.30;;
35496;SDS011;21609;49.298;6.844;2023-05-20T14:24:11;2.90;;;2.22;;
35496;SDS011;21609;49.298;6.844;2023-05-20T14:26:37;2.50;;;2.30;;
35496;SDS011;21609;49.298;6.844;2023-05-20T14:29:02;2.72;;;2.53;;
35496;SDS011;21609;49.298;6.844;2023-05-20T14:31:28;2.35;;;2.25;;
35496;SDS011;21609;49.298;6.844;2023-05-20T14:33:54;3.60;;;2.60;;
35496;SDS011;21609;49.298;6.844;2023-05-20T14:36:19;2.78;;;2.58;;
35496;SDS011;21609;49.298;6.844;2023-05-20T14:38:45;2.72;;;2.50;;
35496;SDS011;21609;49.298;6.844;2023-05-20T14:41:10;2.88;;;2.67;;
35496;SDS011;21609;49.298;6.844;2023-05-20T14:43:36;2.38;;;2.17;;
35496;SDS011;21609;49.298;6.844;2023-05-20T14:46:02;2.63;;;2.42;;
35496;SDS011;21609;49.298;6.844;2023-05-20T14:48:28;2.95;;;2.50;;
35496;SDS011;21609;49.298;6.844;2023-05-20T14:50:53;2.88;;;2.67;;
35496;SDS011;21609;49.298;6.844;2023-05-20T14:53:19;5.10;;;2.58;;